^^
nws-alerts.php - 1.15 - 19-Aug-2013 - NWS Public Alerts
Station Historical Data
Daily Summary for March 14, 2018 Units:  English    Metric   Both
« Previous Day
Next Day »
Daily Weekly Monthly Yearly Custom
  High: Low: Average:
Temperature: 70.3 °F 46.3 °F 57.2 °F
Dew Point: 49.7 °F 29.6 °F 42.8 °F
Humidity: 90% 25% 62%
Wind Speed: 12.0mph 0.0mph 3.1mph
Wind Gust: 16.0mph - -
Wind- - WNW
Pressure: 30.18 in 30.09 in -
Precipitation: 0.00 in    
Historical Graphs
 
 
Tabular Data for March 14, 2018
Time Temperature Dew Point Pressure Wind Wind Speed Wind Gust Humidity Rainfall Rate (Hourly) Conditions
00:04 50.8 °F 44.9 °F 30.12 in NE 0.4 mph   80% 0.00 in 0.0 W/m2
00:09 50.8 °F 44.9 °F 30.12 in Calm     80% 0.00 in 0.0 W/m2
00:14 50.9 °F 44.9 °F 30.12 in NNW 0.5 mph 2.2 mph 80% 0.00 in 0.0 W/m2
00:20 50.9 °F 44.9 °F 30.12 in NW 1.1 mph 1.1 mph 80% 0.00 in 0.0 W/m2
00:25 51.0 °F 45.0 °F 30.12 in Calm   2.0 mph 80% 0.00 in 0.0 W/m2
00:30 50.8 °F 44.9 °F 30.12 in Calm     80% 0.00 in 0.0 W/m2
00:35 50.9 °F 44.9 °F 30.12 in NNW 1.0 mph 5.0 mph 80% 0.00 in 0.0 W/m2
00:40 50.8 °F 44.9 °F 30.12 in NNW 1.4 mph 2.2 mph 80% 0.00 in 0.0 W/m2
00:45 50.8 °F 44.5 °F 30.12 in Calm   2.0 mph 79% 0.00 in 0.0 W/m2
00:50 50.7 °F 44.8 °F 30.12 in Calm     80% 0.00 in 0.0 W/m2
00:55 50.8 °F 44.9 °F 30.12 in Calm     80% 0.00 in 0.0 W/m2
01:00 50.8 °F 44.9 °F 30.12 in Calm     80% 0.00 in 0.0 W/m2
01:05 50.9 °F 44.9 °F 30.12 in Calm   2.0 mph 80% 0.00 in 0.0 W/m2
01:10 50.9 °F 44.9 °F 30.12 in Calm   1.0 mph 80% 0.00 in 0.0 W/m2
01:15 50.9 °F 44.9 °F 30.12 in Calm     80% 0.00 in 0.0 W/m2
01:20 50.9 °F 44.9 °F 30.11 in NNW 1.0 mph 2.0 mph 80% 0.00 in 0.0 W/m2
01:25 50.9 °F 44.9 °F 30.12 in Calm   2.0 mph 80% 0.00 in 0.0 W/m2
01:30 50.9 °F 44.9 °F 30.12 in Calm   2.0 mph 80% 0.00 in 0.0 W/m2
01:35 50.8 °F 44.9 °F 30.12 in Calm     80% 0.00 in 0.0 W/m2
01:40 50.6 °F 45.0 °F 30.12 in Calm     81% 0.00 in 0.0 W/m2
01:45 50.5 °F 44.9 °F 30.12 in Calm     81% 0.00 in 0.0 W/m2
01:50 50.4 °F 44.8 °F 30.12 in Calm   1.0 mph 81% 0.00 in 0.0 W/m2
01:55 50.3 °F 44.7 °F 30.12 in NW 1.0 mph 2.0 mph 81% 0.00 in 0.0 W/m2
02:00 50.1 °F 44.5 °F 30.12 in Calm   2.0 mph 81% 0.00 in 0.0 W/m2
02:05 49.9 °F 44.6 °F 30.12 in Calm     82% 0.00 in 0.0 W/m2
02:10 49.9 °F 44.6 °F 30.11 in Calm     82% 0.00 in 0.0 W/m2
02:15 49.8 °F 44.5 °F 30.12 in Calm     82% 0.00 in 0.0 W/m2
02:20 49.6 °F 44.3 °F 30.11 in Calm     82% 0.00 in 0.0 W/m2
02:25 49.6 °F 44.6 °F 30.11 in Calm     83% 0.00 in 0.0 W/m2
02:30 49.5 °F 44.2 °F 30.11 in Calm     82% 0.00 in 0.0 W/m2
02:35 49.4 °F 44.5 °F 30.11 in Calm     83% 0.00 in 0.0 W/m2
02:40 49.3 °F 44.4 °F 30.11 in Calm     83% 0.00 in 0.0 W/m2
02:45 49.1 °F 44.2 °F 30.11 in Calm     83% 0.00 in 0.0 W/m2
02:50 48.9 °F 44.3 °F 30.10 in Calm     84% 0.00 in 0.0 W/m2
02:55 48.9 °F 44.0 °F 30.10 in Calm     83% 0.00 in 0.0 W/m2
03:00 48.7 °F 44.1 °F 30.11 in Calm     84% 0.00 in 0.0 W/m2
03:05 48.7 °F 44.1 °F 30.11 in Calm   1.0 mph 84% 0.00 in 0.0 W/m2
03:10 48.8 °F 44.2 °F 30.11 in Calm     84% 0.00 in 0.0 W/m2
03:15 49.0 °F 44.4 °F 30.11 in Calm     84% 0.00 in 0.0 W/m2
03:20 48.9 °F 44.3 °F 30.10 in Calm     84% 0.00 in 0.0 W/m2
03:25 48.7 °F 44.1 °F 30.10 in Calm     84% 0.00 in 0.0 W/m2
03:30 48.5 °F 43.9 °F 30.10 in Calm     84% 0.00 in 0.0 W/m2
03:35 48.5 °F 44.2 °F 30.10 in Calm     85% 0.00 in 0.0 W/m2
03:40 48.5 °F 44.2 °F 30.10 in Calm     85% 0.00 in 0.0 W/m2
03:45 48.3 °F 44.0 °F 30.10 in Calm     85% 0.00 in 0.0 W/m2
03:50 48.1 °F 44.1 °F 30.10 in Calm     86% 0.00 in 0.0 W/m2
03:55 48.0 °F 44.0 °F 30.10 in Calm     86% 0.00 in 0.0 W/m2
04:00 48.0 °F 44.3 °F 30.10 in Calm     87% 0.00 in 0.0 W/m2
04:05 47.9 °F 43.9 °F 30.10 in Calm     86% 0.00 in 0.0 W/m2
04:09 47.8 °F 43.8 °F 30.10 in Calm     86% 0.00 in 0.0 W/m2
04:19 47.3 °F 43.6 °F 30.09 in Calm     87% 0.00 in 0.0 W/m2
04:29 47.4 °F 44.0 °F 30.09 in Calm     88% 0.00 in 0.0 W/m2
04:39 47.6 °F 43.9 °F 30.10 in WNW 1.0 mph 2.0 mph 87% 0.00 in 0.0 W/m2
04:49 47.7 °F 44.0 °F 30.09 in Calm   1.0 mph 87% 0.00 in 0.0 W/m2
04:59 47.7 °F 44.0 °F 30.10 in Calm     87% 0.00 in 0.0 W/m2
05:09 47.7 °F 44.0 °F 30.10 in Calm   1.0 mph 87% 0.00 in 0.0 W/m2
05:19 47.5 °F 43.8 °F 30.10 in Calm     87% 0.00 in 0.0 W/m2
05:29 47.2 °F 43.8 °F 30.10 in Calm     88% 0.00 in 0.0 W/m2
05:39 47.0 °F 43.9 °F 30.10 in Calm     89% 0.00 in 0.0 W/m2
05:49 46.9 °F 43.8 °F 30.10 in Calm     89% 0.00 in 0.0 W/m2
05:59 46.6 °F 43.8 °F 30.11 in NW 1.0 mph 2.0 mph 90% 0.00 in 0.0 W/m2
06:09 46.7 °F 43.9 °F 30.11 in North 1.0 mph 2.0 mph 90% 0.00 in 0.0 W/m2
06:19 46.7 °F 43.6 °F 30.11 in Calm   1.0 mph 89% 0.00 in 0.0 W/m2
06:29 46.7 °F 43.6 °F 30.11 in Calm   3.0 mph 89% 0.00 in 0.0 W/m2
06:39 46.7 °F 43.3 °F 30.11 in Calm   2.0 mph 88% 0.00 in 0.0 W/m2
06:49 46.8 °F 43.1 °F 30.12 in Calm   3.0 mph 87% 0.00 in 0.0 W/m2
06:59 46.6 °F 42.9 °F 30.12 in Calm     87% 0.00 in 0.0 W/m2
07:09 46.5 °F 42.8 °F 30.12 in Calm     87% 0.00 in 0.0 W/m2
07:19 46.4 °F 42.7 °F 30.13 in NNE 1.0 mph 3.0 mph 87% 0.00 in 0.0 W/m2
07:29 46.4 °F 42.7 °F 30.13 in NE 1.0 mph 3.0 mph 87% 0.00 in 0.0 W/m2
07:39 46.3 °F 42.6 °F 30.13 in NE 2.0 mph 3.0 mph 87% 0.00 in 0.0 W/m2
07:49 46.5 °F 42.8 °F 30.14 in Calm     87% 0.00 in 0.0 W/m2
07:59 46.5 °F 42.5 °F 30.15 in Calm   1.0 mph 86% 0.00 in 0.0 W/m2
08:09 46.3 °F 42.6 °F 30.15 in Calm     87% 0.00 in 0.0 W/m2
08:19 47.0 °F 43.3 °F 30.16 in Calm     87% 0.00 in 0.0 W/m2
08:29 47.8 °F 43.8 °F 30.16 in Calm   1.0 mph 86% 0.00 in 0.0 W/m2
08:39 48.8 °F 44.8 °F 30.16 in NW 2.0 mph 3.0 mph 86% 0.00 in 0.0 W/m2
08:49 50.0 °F 45.0 °F 30.16 in North 1.0 mph 3.0 mph 83% 0.00 in 0.0 W/m2
08:59 51.5 °F 45.9 °F 30.16 in NNE 2.0 mph 4.0 mph 81% 0.00 in 0.0 W/m2
09:09 53.0 °F 47.0 °F 30.17 in North 1.0 mph 4.0 mph 80% 0.00 in 0.0 W/m2
09:19 54.5 °F 47.4 °F 30.17 in North 1.0 mph 5.0 mph 77% 0.00 in 0.0 W/m2
09:29 55.3 °F 47.5 °F 30.17 in North 6.0 mph 8.0 mph 75% 0.00 in 0.0 W/m2
09:39 56.4 °F 47.9 °F 30.18 in North 6.0 mph 9.0 mph 73% 0.00 in 0.0 W/m2
09:49 57.3 °F 48.3 °F 30.18 in NNE 3.0 mph 10.0 mph 72% 0.00 in 0.0 W/m2
09:59 58.3 °F 48.6 °F 30.18 in North 6.0 mph 12.0 mph 70% 0.00 in 0.0 W/m2
10:09 58.8 °F 49.0 °F 30.18 in NNW 5.0 mph 12.0 mph 70% 0.00 in 0.0 W/m2
10:19 59.5 °F 48.9 °F 30.17 in NNW 7.0 mph 15.0 mph 68% 0.00 in 0.0 W/m2
10:29 60.3 °F 48.9 °F 30.18 in NNW 9.0 mph 14.0 mph 66% 0.00 in 0.0 W/m2
10:39 60.4 °F 47.3 °F 30.17 in NW 8.0 mph 14.0 mph 62% 0.00 in 0.0 W/m2
10:49 61.1 °F 46.7 °F 30.17 in NNW 7.0 mph 13.0 mph 59% 0.00 in 0.0 W/m2
10:59 62.1 °F 46.7 °F 30.17 in NNW 10.0 mph 14.0 mph 57% 0.00 in 0.0 W/m2
11:09 62.3 °F 47.8 °F 30.17 in North 5.0 mph 14.0 mph 59% 0.00 in 0.0 W/m2
11:19 62.4 °F 47.0 °F 30.17 in NNW 7.0 mph 15.0 mph 57% 0.00 in 0.0 W/m2
11:29 62.9 °F 47.4 °F 30.16 in NNW 7.0 mph 13.0 mph 57% 0.00 in 0.0 W/m2
11:39 63.6 °F 46.1 °F 30.16 in North 5.0 mph 12.0 mph 53% 0.00 in 0.0 W/m2
11:49 64.1 °F 45.6 °F 30.16 in NNW 6.0 mph 12.0 mph 51% 0.00 in 0.0 W/m2
11:59 64.3 °F 46.3 °F 30.16 in NW 5.0 mph 12.0 mph 52% 0.00 in 0.0 W/m2
12:09 64.6 °F 45.5 °F 30.16 in NNW 6.0 mph 12.0 mph 50% 0.00 in 0.0 W/m2
12:19 65.2 °F 44.5 °F 30.17 in NNW 7.0 mph 12.0 mph 47% 0.00 in 0.0 W/m2
12:29 65.1 °F 44.4 °F 30.16 in NW 2.0 mph 11.0 mph 47% 0.00 in 0.0 W/m2
12:39 66.0 °F 44.0 °F 30.16 in NW 7.0 mph 13.0 mph 45% 0.00 in 0.0 W/m2
12:49 66.3 °F 45.5 °F 30.15 in NNW 3.0 mph 11.0 mph 47% 0.00 in 0.0 W/m2
12:59 67.2 °F 44.5 °F 30.15 in NW 9.0 mph 16.0 mph 44% 0.00 in 0.0 W/m2
13:09 67.5 °F 45.4 °F 30.14 in WNW 3.0 mph 13.0 mph 45% 0.00 in 0.0 W/m2
13:19 67.1 °F 45.0 °F 30.14 in NW 8.0 mph 12.0 mph 45% 0.00 in 0.0 W/m2
13:29 67.2 °F 44.5 °F 30.13 in NNW 3.0 mph 14.0 mph 44% 0.00 in 0.0 W/m2
13:39 67.6 °F 44.3 °F 30.13 in NNW 7.0 mph 13.0 mph 43% 0.00 in 0.0 W/m2
13:49 68.2 °F 44.8 °F 30.13 in NW 8.0 mph 14.0 mph 43% 0.00 in 0.0 W/m2
13:59 68.3 °F 44.9 °F 30.12 in NW 5.0 mph 12.0 mph 43% 0.00 in 0.0 W/m2
14:09 69.0 °F 44.9 °F 30.12 in NW 6.0 mph 14.0 mph 42% 0.00 in 0.0 W/m2
14:19 69.2 °F 43.8 °F 30.11 in WNW 6.0 mph 14.0 mph 40% 0.00 in 0.0 W/m2
14:29 69.0 °F 44.9 °F 30.11 in NW 5.0 mph 11.0 mph 42% 0.00 in 0.0 W/m2
14:39 69.3 °F 43.9 °F 30.11 in NNW 5.0 mph 15.0 mph 40% 0.00 in 0.0 W/m2
14:49 69.3 °F 42.6 °F 30.11 in NW 6.0 mph 12.0 mph 38% 0.00 in 0.0 W/m2
14:59 69.1 °F 42.4 °F 30.10 in WNW 6.0 mph 15.0 mph 38% 0.00 in 0.0 W/m2
15:09 69.9 °F 44.5 °F 30.10 in NW 9.0 mph 11.0 mph 40% 0.00 in 0.0 W/m2
15:19 69.4 °F 43.4 °F 30.10 in NW 12.0 mph 15.0 mph 39% 0.00 in 0.0 W/m2
15:29 69.5 °F 42.8 °F 30.09 in WNW 8.0 mph 13.0 mph 38% 0.00 in 0.0 W/m2
15:39 69.4 °F 44.0 °F 30.09 in NNW 7.0 mph 13.0 mph 40% 0.00 in 0.0 W/m2
15:49 69.5 °F 44.1 °F 30.09 in WNW 2.0 mph 12.0 mph 40% 0.00 in 0.0 W/m2
15:59 69.7 °F 44.3 °F 30.09 in West 10.0 mph 14.0 mph 40% 0.00 in 0.0 W/m2
16:06 69.8 °F 43.7 °F 30.09 in WNW 7.9 mph 9.2 mph 39% 0.00 in 0.0 W/m2
16:11 69.9 °F 43.8 °F 30.09 in West 7.2 mph 12.1 mph 39% 0.00 in 476.3 W/m2
16:16 69.9 °F 47.0 °F 30.09 in WNW 7.9 mph 9.9 mph 44% 0.00 in 471.8 W/m2
16:21 69.8 °F 43.0 °F 30.09 in WNW 4.2 mph 9.2 mph 38% 0.00 in 469.9 W/m2
16:27 70.0 °F 43.9 °F 30.09 in WNW 5.5 mph 8.1 mph 39% 0.00 in 472.7 W/m2
16:32 70.1 °F 48.9 °F 30.09 in WNW 9.6 mph 11.5 mph 47% 0.00 in 468.1 W/m2
16:37 70.1 °F 43.3 °F 30.09 in NW 4.3 mph 12.7 mph 38% 0.00 in 468.1 W/m2
16:42 70.1 °F 41.9 °F 30.09 in NW 8.6 mph 12.7 mph 36% 0.00 in 464.5 W/m2
16:47 70.3 °F 42.1 °F 30.09 in WSW 9.4 mph 12.7 mph 36% 0.00 in 464.5 W/m2
16:52 69.6 °F 42.9 °F 30.09 in WNW 2.9 mph 7.7 mph 38% 0.00 in 468.1 W/m2
16:57 70.3 °F 38.2 °F 30.09 in WNW 8.3 mph 14.3 mph 31% 0.00 in 472.7 W/m2
17:02 69.9 °F 39.5 °F 30.09 in NNW 8.8 mph 12.7 mph 33% 0.00 in 471.8 W/m2
17:07 68.9 °F 48.9 °F 30.09 in WSW 8.3 mph 12.7 mph 49% 0.00 in 442.6 W/m2
17:12 68.6 °F 49.7 °F 30.09 in WNW 5.6 mph 8.1 mph 51% 0.00 in 440.8 W/m2
17:17 68.3 °F 47.3 °F 30.09 in WNW 11.7 mph 13.2 mph 47% 0.00 in 434.4 W/m2
17:22 68.6 °F 48.1 °F 30.09 in WNW 9.7 mph 14.3 mph 48% 0.00 in 434.4 W/m2
17:27 68.6 °F 48.1 °F 30.09 in WNW 7.7 mph 12.1 mph 48% 0.00 in 416.2 W/m2
17:32 68.2 °F 47.8 °F 30.09 in WNW 7.9 mph 12.7 mph 48% 0.00 in 402.6 W/m2
17:37 68.4 °F 47.9 °F 30.10 in WNW 5.8 mph 8.1 mph 48% 0.00 in 383.5 W/m2
17:42 68.6 °F 45.2 °F 30.10 in WSW 0.8 mph 3.5 mph 43% 0.00 in 349.8 W/m2
17:47 68.6 °F 47.0 °F 30.10 in West 5.4 mph 6.9 mph 46% 0.00 in 349.8 W/m2
17:52 68.3 °F 44.9 °F 30.10 in WNW 8.1 mph 9.2 mph 43% 0.00 in 112.3 W/m2
17:57 68.6 °F 39.1 °F 30.10 in NW 9.3 mph 10.4 mph 34% 0.00 in 64.1 W/m2
18:03 68.7 °F 38.4 °F 30.10 in NW 5.1 mph 8.1 mph 33% 0.00 in 55.0 W/m2
18:08 68.6 °F 35.9 °F 30.10 in NW 10.0 mph 12.7 mph 30% 0.00 in 42.2 W/m2
18:13 68.3 °F 36.5 °F 30.10 in WNW 7.6 mph 10.4 mph 31% 0.00 in 34.0 W/m2
18:18 68.3 °F 35.6 °F 30.11 in NNW 6.3 mph 9.2 mph 30% 0.00 in 34.0 W/m2
18:23 68.1 °F 30.9 °F 30.11 in West 7.7 mph 11.5 mph 25% 0.00 in 42.2 W/m2
18:28 67.8 °F 30.7 °F 30.11 in NNW 7.6 mph 11.0 mph 25% 0.00 in 8.6 W/m2
18:33 67.4 °F 31.3 °F 30.11 in NW 6.3 mph 9.2 mph 26% 0.00 in 0.0 W/m2
18:38 67.3 °F 33.9 °F 30.11 in NNE 5.4 mph 6.9 mph 29% 0.00 in 0.0 W/m2
18:43 67.1 °F 32.9 °F 30.11 in NNW 5.2 mph 10.4 mph 28% 0.00 in 0.0 W/m2
18:48 66.9 °F 32.7 °F 30.11 in NW 5.5 mph 7.7 mph 28% 0.00 in 0.0 W/m2
18:53 66.8 °F 31.7 °F 30.11 in NW 4.1 mph 4.6 mph 27% 0.00 in 0.0 W/m2
18:58 66.5 °F 30.5 °F 30.11 in NW 4.4 mph 5.8 mph 26% 0.00 in 0.0 W/m2
19:03 66.3 °F 31.3 °F 30.11 in NW 4.5 mph 7.7 mph 27% 0.00 in 0.0 W/m2
19:08 65.8 °F 29.9 °F 30.12 in NW 4.9 mph 6.9 mph 26% 0.00 in 0.0 W/m2
19:13 65.4 °F 29.6 °F 30.12 in NNW 5.3 mph 5.8 mph 26% 0.00 in 0.0 W/m2
19:18 64.9 °F 30.1 °F 30.12 in NW 2.5 mph 3.5 mph 27% 0.00 in 0.0 W/m2
19:23 64.4 °F 30.6 °F 30.12 in WNW 3.6 mph 5.8 mph 28% 0.00 in 0.0 W/m2
19:28 63.7 °F 30.8 °F 30.12 in NW 1.7 mph 3.5 mph 29% 0.00 in 0.0 W/m2
19:33 62.8 °F 30.9 °F 30.13 in WNW 1.7 mph 2.3 mph 30% 0.00 in 0.0 W/m2
19:39 62.2 °F 37.6 °F 30.13 in WNW 1.6 mph 2.3 mph 40% 0.00 in 0.0 W/m2
19:44 61.6 °F 42.8 °F 30.13 in WNW 1.9 mph 3.5 mph 50% 0.00 in 0.0 W/m2
19:49 60.9 °F 43.6 °F 30.13 in West 2.1 mph 3.5 mph 53% 0.00 in 0.0 W/m2
19:54 60.4 °F 44.2 °F 30.13 in West 3.4 mph 4.6 mph 55% 0.00 in 0.0 W/m2
19:59 60.0 °F 44.3 °F 30.14 in WNW 2.7 mph 4.6 mph 56% 0.00 in 0.0 W/m2
20:04 59.6 °F 43.9 °F 30.14 in West 2.8 mph 3.5 mph 56% 0.00 in 0.0 W/m2
20:09 59.3 °F 44.1 °F 30.14 in WNW 2.3 mph 3.5 mph 57% 0.00 in 0.0 W/m2
20:14 58.9 °F 43.2 °F 30.14 in West 2.2 mph 3.5 mph 56% 0.00 in 0.0 W/m2
20:19 58.7 °F 43.0 °F 30.14 in WNW 2.5 mph 3.5 mph 56% 0.00 in 0.0 W/m2
20:24 58.3 °F 42.2 °F 30.14 in West 2.6 mph 3.5 mph 55% 0.00 in 0.0 W/m2
20:29 58.0 °F 41.9 °F 30.14 in WNW 2.2 mph 5.8 mph 55% 0.00 in 0.0 W/m2
20:34 57.7 °F 41.6 °F 30.14 in WNW 2.2 mph 4.6 mph 55% 0.00 in 0.0 W/m2
20:39 57.4 °F 41.4 °F 30.14 in WNW 1.7 mph 2.3 mph 55% 0.00 in 0.0 W/m2
20:44 57.1 °F 41.1 °F 30.15 in WNW 1.3 mph 2.3 mph 55% 0.00 in 0.0 W/m2
20:49 56.8 °F 40.8 °F 30.15 in West 1.1 mph 2.3 mph 55% 0.00 in 0.0 W/m2
20:54 56.5 °F 40.5 °F 30.15 in West 2.2 mph 3.5 mph 55% 0.00 in 0.0 W/m2
20:59 56.1 °F 40.6 °F 30.15 in WNW 1.8 mph 3.5 mph 56% 0.00 in 0.0 W/m2
21:04 55.7 °F 40.2 °F 30.15 in WNW 1.3 mph 2.3 mph 56% 0.00 in 0.0 W/m2
21:10 55.4 °F 40.4 °F 30.16 in WNW 1.9 mph 2.3 mph 57% 0.00 in 0.0 W/m2
21:15 55.1 °F 40.2 °F 30.16 in WNW 2.0 mph 3.0 mph 57% 0.00 in 0.0 W/m2
21:20 55.0 °F 40.0 °F 30.16 in WNW 2.0 mph 3.0 mph 57% 0.00 in 0.0 W/m2
21:25 54.5 °F 40.5 °F 30.16 in WNW 2.0 mph 5.0 mph 59% 0.00 in 0.0 W/m2
21:29 54.4 °F 40.4 °F 30.16 in WNW 4.1 mph 4.6 mph 59% 0.00 in 0.0 W/m2
21:35 54.5 °F 40.0 °F 30.16 in WNW 5.0 mph 6.0 mph 58% 0.00 in 0.0 W/m2
21:40 54.6 °F 40.1 °F 30.16 in WNW 3.3 mph 6.9 mph 58% 0.00 in 0.0 W/m2
21:45 54.6 °F 39.7 °F 30.17 in WNW 3.0 mph 6.0 mph 57% 0.00 in 0.0 W/m2
21:50 54.4 °F 39.9 °F 30.17 in WNW 3.0 mph 5.0 mph 58% 0.00 in 0.0 W/m2
21:55 54.0 °F 39.5 °F 30.17 in North 3.4 mph 3.5 mph 58% 0.00 in 0.0 W/m2
22:00 53.7 °F 39.7 °F 30.17 in NW 2.0 mph 6.0 mph 59% 0.00 in 0.0 W/m2
22:05 53.5 °F 39.9 °F 30.17 in WNW 2.0 mph 3.0 mph 60% 0.00 in 0.0 W/m2
22:10 53.2 °F 40.1 °F 30.17 in NW 3.0 mph 5.0 mph 61% 0.00 in 0.0 W/m2
22:15 52.9 °F 39.8 °F 30.17 in NW 1.0 mph 5.0 mph 61% 0.00 in 0.0 W/m2
22:20 52.7 °F 40.0 °F 30.17 in NW 2.0 mph 5.0 mph 62% 0.00 in 0.0 W/m2
22:25 52.5 °F 39.8 °F 30.17 in NW 3.0 mph 3.5 mph 62% 0.00 in 0.0 W/m2
22:30 52.6 °F 39.9 °F 30.17 in NW 3.0 mph 6.0 mph 62% 0.00 in 0.0 W/m2
22:35 52.7 °F 40.5 °F 30.17 in NW 3.0 mph 7.0 mph 63% 0.00 in 0.0 W/m2
22:40 52.8 °F 40.9 °F 30.17 in NW 2.0 mph 5.0 mph 64% 0.00 in 0.0 W/m2
22:45 52.9 °F 41.0 °F 30.17 in WNW 2.0 mph 6.0 mph 64% 0.00 in 0.0 W/m2
22:50 52.9 °F 41.4 °F 30.17 in NW 3.5 mph 3.5 mph 65% 0.00 in 0.0 W/m2
22:55 53.0 °F 41.5 °F 30.17 in NW 3.0 mph 7.0 mph 65% 0.00 in 0.0 W/m2
23:00 52.9 °F 41.4 °F 30.17 in WNW 2.7 mph 6.9 mph 65% 0.00 in 0.0 W/m2
23:05 52.8 °F 41.7 °F 30.17 in NW 2.0 mph 5.0 mph 66% 0.00 in 0.0 W/m2
23:10 52.8 °F 41.7 °F 30.17 in NW 4.4 mph 4.6 mph 66% 0.00 in 0.0 W/m2
23:15 52.9 °F 41.9 °F 30.17 in NW 3.0 mph 7.0 mph 66% 0.00 in 0.0 W/m2
23:20 52.8 °F 42.1 °F 30.17 in NNW 3.0 mph 6.0 mph 67% 0.00 in 0.0 W/m2
23:25 52.7 °F 42.1 °F 30.17 in NNW 3.0 mph 5.0 mph 67% 0.00 in 0.0 W/m2
23:30 52.6 °F 42.3 °F 30.17 in NW 2.0 mph 7.0 mph 68% 0.00 in 0.0 W/m2
23:35 52.4 °F 42.1 °F 30.17 in NW 3.0 mph 8.0 mph 68% 0.00 in 0.0 W/m2
23:40 52.2 °F 42.3 °F 30.18 in NW 5.0 mph 6.0 mph 69% 0.00 in 0.0 W/m2
23:45 52.2 °F 42.3 °F 30.17 in NNW 3.1 mph 5.5 mph 69% 0.00 in 0.0 W/m2
23:50 52.1 °F 42.3 °F 30.18 in NW 5.0 mph 8.0 mph 69% 0.00 in 0.0 W/m2
23:55 52.0 °F 42.5 °F 30.18 in NW 3.7 mph 8.1 mph 70% 0.00 in 0.0 W/m2
Juneau County Weather
Compliments of Weather Underground - 2.75 mb